createdAt,value
2017-12-25T00:01:18.609Z,12.47
2017-12-25T00:03:46.100Z,12.30
2017-12-25T00:06:13.540Z,11.60
2017-12-25T00:08:40.990Z,13.70
2017-12-25T00:11:08.429Z,13.50
2017-12-25T00:13:35.882Z,17.13
2017-12-25T00:16:03.316Z,14.60
2017-12-25T00:18:30.773Z,14.37
2017-12-25T00:20:58.209Z,15.47
2017-12-25T00:23:25.666Z,10.40
2017-12-25T00:25:53.097Z,10.63
2017-12-25T00:28:21.304Z,15.73
2017-12-25T00:30:49.116Z,14.60
2017-12-25T00:33:16.567Z,11.73
2017-12-25T00:35:44.771Z,15.93
2017-12-25T00:38:13.021Z,14.07
2017-12-25T00:40:40.460Z,15.83
2017-12-25T00:43:07.906Z,12.40
2017-12-25T00:45:35.358Z,11.63
2017-12-25T00:48:02.799Z,13.80
2017-12-25T00:50:30.250Z,17.87
2017-12-25T00:52:57.691Z,15.60
2017-12-25T00:55:25.142Z,15.03
2017-12-25T00:57:52.592Z,14.20
2017-12-25T01:00:20.887Z,17.93
2017-12-25T01:02:48.328Z,15.13
2017-12-25T01:05:15.781Z,15.87
2017-12-25T01:07:43.227Z,14.43
2017-12-25T01:10:10.671Z,15.47
2017-12-25T01:12:38.120Z,16.87
2017-12-25T01:15:05.551Z,15.10
2017-12-25T01:17:32.996Z,15.20
2017-12-25T01:20:00.440Z,16.77
2017-12-25T01:22:28.650Z,17.27
2017-12-25T01:24:56.863Z,16.67
2017-12-25T01:27:24.307Z,12.97
2017-12-25T01:29:51.767Z,15.13
2017-12-25T01:32:19.884Z,13.53
2017-12-25T01:34:47.347Z,19.03
2017-12-25T01:37:14.790Z,14.30
2017-12-25T01:39:42.234Z,14.27
2017-12-25T01:42:10.445Z,16.83
2017-12-25T01:44:38.655Z,14.93
2017-12-25T01:47:06.097Z,12.77
2017-12-25T01:49:33.552Z,16.10
2017-12-25T01:52:01.018Z,16.25
2017-12-25T01:54:29.245Z,12.30
2017-12-25T01:57:12.498Z,13.37
2017-12-25T02:00:03.619Z,15.20
2017-12-25T02:02:33.868Z,16.57
2017-12-25T02:08:21.948Z,14.00
2017-12-25T02:10:49.382Z,20.73
2017-12-25T02:13:16.834Z,16.07
2017-12-25T02:15:45.126Z,15.57
2017-12-25T02:18:13.177Z,19.13
2017-12-25T02:20:40.617Z,14.27
2017-12-25T02:23:08.060Z,14.50
2017-12-25T02:25:35.497Z,17.13
2017-12-25T02:28:02.949Z,17.57
2017-12-25T02:30:30.389Z,12.90
2017-12-25T02:32:58.596Z,17.43
2017-12-25T02:35:26.797Z,16.33
2017-12-25T02:37:55.019Z,13.83
2017-12-25T02:40:22.452Z,15.90
2017-12-25T02:42:49.907Z,16.20
2017-12-25T02:45:17.346Z,16.20
2017-12-25T02:47:44.799Z,18.13
2017-12-25T02:50:12.920Z,15.90
2017-12-25T02:52:41.133Z,16.03
2017-12-25T02:55:08.565Z,15.33
2017-12-25T02:57:36.022Z,17.80
2017-12-25T03:00:03.453Z,18.03
2017-12-25T03:02:31.722Z,15.07
2017-12-25T03:04:59.157Z,16.57
2017-12-25T03:07:26.605Z,16.70
2017-12-25T03:09:54.810Z,17.17
2017-12-25T03:12:22.241Z,17.40
2017-12-25T03:14:49.683Z,16.60
2017-12-25T03:17:17.129Z,16.40
2017-12-25T03:19:44.581Z,15.77
2017-12-25T03:22:12.790Z,15.80
2017-12-25T03:24:40.234Z,17.47
2017-12-25T03:27:07.670Z,15.30
2017-12-25T03:29:35.113Z,15.47
2017-12-25T03:32:02.556Z,17.30
2017-12-25T03:34:30.001Z,15.27
2017-12-25T03:36:57.441Z,14.23
2017-12-25T03:39:24.893Z,14.80
2017-12-25T03:41:52.334Z,16.93
2017-12-25T03:44:19.778Z,16.93
2017-12-25T03:46:47.206Z,14.63
2017-12-25T03:49:14.662Z,16.73
2017-12-25T03:51:42.100Z,14.80
2017-12-25T03:54:09.602Z,16.10
2017-12-25T03:56:37.033Z,18.43
2017-12-25T03:59:04.470Z,21.05
2017-12-25T04:01:31.923Z,19.27
2017-12-25T04:03:59.362Z,17.43
2017-12-25T04:06:26.814Z,15.47
2017-12-25T04:08:54.824Z,15.93
2017-12-25T04:11:22.277Z,14.23
2017-12-25T04:13:49.713Z,16.50
2017-12-25T04:16:17.929Z,15.47
2017-12-25T04:18:46.134Z,15.03
2017-12-25T04:21:14.693Z,16.07
2017-12-25T04:23:42.132Z,15.87
2017-12-25T04:26:09.586Z,18.37
2017-12-25T04:28:37.792Z,20.20
2017-12-25T04:31:06.005Z,16.60
2017-12-25T04:33:33.445Z,16.57
2017-12-25T04:36:00.894Z,16.73
2017-12-25T04:38:28.330Z,15.77
2017-12-25T04:40:56.549Z,18.00
2017-12-25T04:43:23.998Z,20.63
2017-12-25T04:45:52.224Z,20.23
2017-12-25T04:48:19.662Z,21.23
2017-12-25T04:50:47.109Z,23.80
2017-12-25T04:53:15.211Z,23.07
2017-12-25T04:55:42.652Z,21.63
2017-12-25T04:58:10.109Z,21.47
2017-12-25T05:00:37.554Z,21.63
2017-12-25T05:03:04.992Z,20.73
2017-12-25T05:05:32.434Z,17.33
2017-12-25T05:07:59.880Z,22.03
2017-12-25T05:10:27.323Z,27.40
2017-12-25T05:12:55.540Z,19.97
2017-12-25T05:15:22.980Z,24.00
2017-12-25T05:17:50.435Z,22.70
2017-12-25T05:20:17.892Z,21.37
2017-12-25T05:22:45.345Z,25.00
2017-12-25T05:25:14.201Z,21.93
2017-12-25T05:27:41.652Z,28.87
2017-12-25T05:30:09.091Z,25.90
2017-12-25T05:32:36.546Z,24.00
2017-12-25T05:35:03.980Z,25.27
2017-12-25T05:37:32.197Z,25.83
2017-12-25T05:39:59.650Z,27.20
2017-12-25T05:42:27.865Z,23.03
2017-12-25T05:44:55.295Z,24.77
2017-12-25T05:47:22.757Z,23.40
2017-12-25T05:49:50.199Z,21.30
2017-12-25T05:52:18.401Z,20.83
2017-12-25T05:54:46.615Z,22.67
2017-12-25T05:57:14.488Z,24.03
2017-12-25T05:59:42.713Z,31.00
2017-12-25T06:02:10.148Z,22.00
2017-12-25T06:04:37.600Z,23.50
2017-12-25T06:07:05.045Z,34.77
2017-12-25T06:09:32.496Z,48.30
2017-12-25T06:12:00.714Z,35.23
2017-12-25T06:14:28.168Z,88.43
2017-12-25T06:16:55.603Z,28.87
2017-12-25T06:19:23.058Z,30.50
2017-12-25T06:21:50.496Z,26.97
2017-12-25T06:24:17.938Z,29.80
2017-12-25T06:26:45.384Z,24.60
2017-12-25T06:29:13.605Z,24.20
2017-12-25T06:31:41.047Z,21.37
2017-12-25T06:34:09.258Z,22.20
2017-12-25T06:36:37.456Z,28.73
2017-12-25T06:39:05.663Z,23.90
2017-12-25T06:41:33.105Z,24.23
2017-12-25T06:44:00.549Z,22.23
2017-12-25T06:46:27.986Z,27.50
2017-12-25T06:48:56.349Z,25.00
2017-12-25T06:51:24.480Z,20.47
2017-12-25T06:53:51.917Z,23.87
2017-12-25T06:56:19.359Z,24.80
2017-12-25T06:58:47.569Z,25.17
2017-12-25T07:01:15.013Z,20.90
2017-12-25T07:03:42.447Z,19.87
2017-12-25T07:06:09.898Z,27.17
2017-12-25T07:08:38.098Z,24.30
2017-12-25T07:11:06.307Z,24.57
2017-12-25T07:13:33.749Z,22.13
2017-12-25T07:16:01.192Z,20.03
2017-12-25T07:18:28.627Z,21.33
2017-12-25T07:20:56.825Z,19.20
2017-12-25T07:23:25.032Z,21.30
2017-12-25T07:25:53.243Z,22.07
2017-12-25T07:28:20.683Z,20.10
2017-12-25T07:30:48.129Z,22.27
2017-12-25T07:33:15.803Z,22.40
2017-12-25T07:35:43.243Z,20.10
2017-12-25T07:38:11.451Z,19.80
2017-12-25T07:40:39.659Z,23.33
2017-12-25T07:43:07.101Z,21.50
2017-12-25T07:45:34.548Z,29.80
2017-12-25T07:48:01.989Z,19.73
2017-12-25T07:50:30.217Z,20.00
2017-12-25T07:52:57.660Z,20.00
2017-12-25T07:55:25.909Z,24.13
2017-12-25T07:57:53.347Z,19.27
2017-12-25T08:00:21.559Z,23.30
2017-12-25T08:02:49.776Z,27.17
2017-12-25T08:05:17.215Z,21.00
2017-12-25T08:07:46.224Z,20.43
2017-12-25T08:10:13.669Z,25.73
2017-12-25T08:12:41.150Z,21.07
2017-12-25T08:15:08.591Z,22.50
2017-12-25T08:17:36.048Z,21.23
2017-12-25T08:20:03.490Z,22.63
2017-12-25T08:22:30.925Z,25.37
2017-12-25T08:24:59.130Z,23.50
2017-12-25T08:27:27.344Z,25.37
2017-12-25T08:29:54.790Z,19.80
2017-12-25T08:32:22.229Z,23.90
2017-12-25T08:34:49.668Z,19.87
2017-12-25T08:37:17.882Z,19.30
2017-12-25T08:39:46.104Z,17.67
2017-12-25T08:42:13.554Z,20.17
2017-12-25T08:44:40.997Z,21.27
2017-12-25T08:47:08.440Z,22.53
2017-12-25T08:49:35.885Z,19.47
2017-12-25T08:52:04.135Z,18.90
2017-12-25T08:54:31.579Z,24.40
2017-12-25T08:56:59.017Z,20.50
2017-12-25T08:59:26.463Z,20.33
2017-12-25T09:01:53.917Z,20.47
2017-12-25T09:04:22.124Z,19.97
2017-12-25T09:06:49.570Z,21.57
2017-12-25T09:09:17.021Z,18.93
2017-12-25T09:11:44.804Z,23.60
2017-12-25T09:14:12.244Z,19.20
2017-12-25T09:16:39.678Z,18.90
2017-12-25T09:19:07.128Z,18.33
2017-12-25T09:21:34.559Z,19.30
2017-12-25T09:24:02.773Z,16.07
2017-12-25T09:26:30.980Z,20.97
2017-12-25T09:28:58.427Z,20.13
2017-12-25T09:31:25.862Z,19.10
2017-12-25T09:33:53.313Z,21.80
2017-12-25T09:36:21.516Z,19.60
2017-12-25T09:38:48.964Z,19.83
2017-12-25T09:41:16.998Z,21.30
2017-12-25T09:43:44.431Z,18.13
2017-12-25T09:46:12.427Z,18.87
2017-12-25T09:48:39.877Z,19.00
2017-12-25T09:51:07.314Z,18.43
2017-12-25T09:53:35.581Z,18.67
2017-12-25T09:56:03.024Z,24.20
2017-12-25T09:58:30.461Z,26.63
2017-12-25T10:00:57.908Z,24.93
2017-12-25T10:03:25.337Z,13.00
2017-12-25T10:05:53.557Z,20.87
2017-12-25T10:08:21.762Z,24.67
2017-12-25T10:10:49.211Z,27.40
2017-12-25T10:13:17.417Z,20.07
2017-12-25T10:15:46.036Z,22.67
2017-12-25T10:18:13.480Z,20.33
2017-12-25T10:20:40.924Z,16.80
2017-12-25T10:23:08.355Z,21.57
2017-12-25T10:25:36.576Z,21.83
2017-12-25T10:28:04.018Z,18.57
2017-12-25T10:30:31.459Z,23.03
2017-12-25T10:32:58.897Z,16.87
2017-12-25T10:35:27.111Z,18.80
2017-12-25T10:37:55.317Z,14.93
2017-12-25T10:40:22.764Z,18.63
2017-12-25T10:42:50.201Z,24.40
2017-12-25T10:45:17.658Z,20.17
2017-12-25T10:47:45.098Z,22.17
2017-12-25T10:50:12.536Z,22.77
2017-12-25T10:52:39.981Z,15.30
2017-12-25T10:55:08.205Z,19.80
2017-12-25T10:57:35.636Z,20.80
2017-12-25T11:00:03.074Z,17.00
2017-12-25T11:02:30.524Z,20.10
2017-12-25T11:04:58.749Z,20.13
2017-12-25T11:07:26.201Z,17.00
2017-12-25T11:09:54.406Z,14.80
2017-12-25T11:12:22.622Z,21.73
2017-12-25T11:14:50.061Z,16.97
2017-12-25T11:17:17.509Z,15.07
2017-12-25T11:19:46.304Z,18.00
2017-12-25T11:22:13.755Z,20.80
2017-12-25T11:24:41.956Z,17.00
2017-12-25T11:27:10.167Z,19.97
2017-12-25T11:29:37.615Z,16.53
2017-12-25T11:32:05.065Z,16.87
2017-12-25T11:34:32.519Z,15.38
2017-12-25T11:36:59.972Z,15.40
2017-12-25T11:39:28.175Z,16.00
2017-12-25T11:41:56.387Z,15.60
2017-12-25T11:44:23.839Z,17.00
2017-12-25T11:46:51.280Z,15.80
2017-12-25T11:49:18.721Z,15.07
2017-12-25T11:51:46.164Z,13.43
2017-12-25T11:54:13.605Z,16.67
2017-12-25T11:56:41.102Z,13.80
2017-12-25T11:59:08.543Z,16.40
2017-12-25T12:01:35.990Z,15.57
2017-12-25T12:04:03.446Z,18.37
2017-12-25T12:06:30.874Z,16.23
2017-12-25T12:08:59.083Z,14.20
2017-12-25T12:11:26.524Z,14.00
2017-12-25T12:13:53.964Z,19.27
2017-12-25T12:16:21.397Z,17.17
2017-12-25T12:18:48.841Z,15.00
2017-12-25T12:21:16.689Z,18.23
2017-12-25T12:23:44.128Z,15.50
2017-12-25T12:26:11.567Z,13.30
2017-12-25T12:28:39.012Z,12.97
2017-12-25T12:31:07.207Z,13.20
2017-12-25T12:33:35.425Z,16.37
2017-12-25T12:36:03.626Z,13.17
2017-12-25T12:38:31.079Z,14.37
2017-12-25T12:40:58.516Z,13.63
2017-12-25T12:43:25.969Z,15.23
2017-12-25T12:45:53.420Z,14.03
2017-12-25T12:48:20.853Z,12.97
2017-12-25T12:50:48.288Z,12.50
2017-12-25T12:53:15.994Z,16.60
2017-12-25T12:55:43.437Z,14.93
2017-12-25T12:58:10.890Z,15.13
2017-12-25T13:00:38.335Z,16.00
2017-12-25T13:03:06.549Z,12.10
2017-12-25T13:05:33.995Z,16.27
2017-12-25T13:08:01.428Z,14.47
2017-12-25T13:10:28.876Z,11.60
2017-12-25T13:12:56.318Z,17.47
2017-12-25T13:15:23.765Z,16.63
2017-12-25T13:17:51.204Z,21.30
2017-12-25T13:20:19.414Z,16.87
2017-12-25T13:22:47.946Z,16.40
2017-12-25T13:25:15.397Z,20.67
2017-12-25T13:27:43.605Z,16.97
2017-12-25T13:30:11.061Z,18.00
2017-12-25T13:32:39.266Z,15.60
2017-12-25T13:35:07.470Z,16.07
2017-12-25T13:37:35.684Z,22.37
2017-12-25T13:40:03.123Z,17.07
2017-12-25T13:42:30.572Z,15.30
2017-12-25T13:44:58.016Z,21.33
2017-12-25T13:47:26.289Z,14.97
2017-12-25T13:49:53.719Z,15.50
2017-12-25T13:52:21.159Z,21.37
2017-12-25T13:54:48.594Z,18.37
2017-12-25T13:57:16.559Z,17.73
2017-12-25T13:59:44.557Z,15.37
2017-12-25T14:02:12.013Z,19.03
2017-12-25T14:04:40.222Z,17.80
2017-12-25T14:07:08.433Z,18.47
2017-12-25T14:09:35.869Z,18.27
2017-12-25T14:12:03.362Z,18.60
2017-12-25T14:14:30.793Z,19.77
2017-12-25T14:16:58.229Z,15.93
2017-12-25T14:19:26.451Z,17.63
2017-12-25T14:21:53.887Z,14.40
2017-12-25T14:24:21.333Z,17.50
2017-12-25T14:26:48.808Z,13.87
2017-12-25T14:29:16.241Z,13.33
2017-12-25T14:31:44.448Z,13.60
2017-12-25T14:34:12.651Z,16.33
2017-12-25T14:36:40.856Z,17.30
2017-12-25T14:39:08.301Z,18.30
2017-12-25T14:41:35.738Z,20.33
2017-12-25T14:44:03.197Z,17.95
2017-12-25T14:46:30.640Z,16.65
2017-12-25T14:48:58.090Z,16.43
2017-12-25T14:51:25.525Z,13.03
2017-12-25T14:53:53.740Z,19.50
2017-12-25T14:56:21.181Z,15.60
2017-12-25T14:58:48.626Z,17.40
2017-12-25T15:01:16.307Z,14.95
2017-12-25T15:03:43.744Z,17.85
2017-12-25T15:06:11.947Z,17.53
2017-12-25T15:08:39.400Z,14.17
2017-12-25T15:11:06.844Z,13.85
2017-12-25T15:13:34.295Z,15.38
2017-12-25T15:16:02.495Z,14.60
2017-12-25T15:18:29.937Z,18.80
2017-12-25T15:20:57.385Z,15.90
2017-12-25T15:23:24.816Z,18.40
2017-12-25T15:25:52.313Z,17.58
2017-12-25T15:28:19.707Z,24.23
2017-12-25T15:30:47.605Z,21.67
2017-12-25T15:33:15.041Z,24.48
2017-12-25T15:35:42.506Z,23.53
2017-12-25T15:38:09.943Z,23.07
2017-12-25T15:40:37.381Z,20.03
2017-12-25T15:43:04.806Z,21.50
2017-12-25T15:45:32.264Z,21.10
2017-12-25T15:48:00.483Z,15.43
2017-12-25T15:50:27.924Z,17.10
2017-12-25T15:52:55.359Z,15.60
2017-12-25T15:55:22.803Z,11.17
2017-12-25T15:57:51.009Z,31.07
2017-12-25T16:00:19.228Z,19.70
2017-12-25T16:02:47.161Z,19.83
2017-12-25T16:05:14.599Z,25.40
2017-12-25T16:07:42.044Z,28.80
2017-12-25T16:10:09.487Z,101.87
2017-12-25T16:12:36.930Z,69.83
2017-12-25T16:15:05.136Z,31.47
2017-12-25T16:17:32.573Z,17.30
2017-12-25T16:20:00.018Z,17.90
2017-12-25T16:22:27.459Z,17.30
2017-12-25T16:24:55.655Z,16.57
2017-12-25T16:27:23.860Z,19.47
2017-12-25T16:29:52.054Z,16.57
2017-12-25T16:32:20.269Z,14.27
2017-12-25T16:34:47.718Z,17.87
2017-12-25T16:37:15.169Z,17.23
2017-12-25T16:39:42.603Z,23.20
2017-12-25T16:42:10.050Z,23.13
2017-12-25T16:44:37.494Z,21.57
2017-12-25T16:47:04.947Z,21.80
2017-12-25T16:49:33.144Z,20.60
2017-12-25T16:52:01.357Z,20.50
2017-12-25T16:54:28.784Z,15.00
2017-12-25T16:56:56.228Z,20.23
2017-12-25T16:59:23.663Z,20.27
2017-12-25T17:01:51.103Z,15.63
2017-12-25T17:04:19.343Z,17.77
2017-12-25T17:06:47.603Z,19.23
2017-12-25T17:09:15.026Z,31.60
2017-12-25T17:11:43.244Z,34.77
2017-12-25T17:14:10.669Z,35.83
2017-12-25T17:16:38.116Z,41.93
2017-12-25T17:19:05.556Z,32.83
2017-12-25T17:21:33.763Z,23.50
2017-12-25T17:24:01.967Z,25.67
2017-12-25T17:26:30.176Z,28.73
2017-12-25T17:28:58.375Z,22.00
2017-12-25T17:31:25.808Z,27.23
2017-12-25T17:33:53.246Z,25.10
2017-12-25T17:36:20.685Z,22.03
2017-12-25T17:38:48.120Z,35.87
2017-12-25T17:41:15.561Z,37.30
2017-12-25T17:43:43.767Z,22.63
2017-12-25T17:46:11.969Z,20.80
2017-12-25T17:48:40.180Z,23.07
2017-12-25T17:51:07.621Z,42.43
2017-12-25T17:53:35.073Z,35.10
2017-12-25T17:56:02.504Z,33.47
2017-12-25T17:58:29.957Z,25.80
2017-12-25T18:00:57.395Z,29.13
2017-12-25T18:03:24.849Z,28.10
2017-12-25T18:05:53.046Z,32.53
2017-12-25T18:08:21.262Z,44.77
2017-12-25T18:10:49.398Z,53.17
2017-12-25T18:13:16.846Z,38.50
2017-12-25T18:15:44.289Z,25.03
2017-12-25T18:18:12.514Z,22.30
2017-12-25T18:20:39.953Z,18.47
2017-12-25T18:23:07.402Z,20.53
2017-12-25T18:25:34.845Z,19.60
2017-12-25T18:28:03.053Z,21.00
2017-12-25T18:30:30.499Z,20.30
2017-12-25T18:32:58.748Z,19.10
2017-12-25T18:35:26.193Z,15.73
2017-12-25T18:37:54.402Z,10.87
2017-12-25T18:40:22.612Z,16.73
2017-12-25T18:42:50.052Z,19.03
2017-12-25T18:45:17.491Z,16.57
2017-12-25T18:47:44.937Z,22.13
2017-12-25T18:50:13.159Z,18.07
2017-12-25T18:52:40.597Z,19.23
2017-12-25T18:55:08.038Z,27.97
2017-12-25T18:57:35.471Z,27.43
2017-12-25T19:00:03.691Z,40.53
2017-12-25T19:02:31.124Z,28.37
2017-12-25T19:04:59.402Z,29.00
2017-12-25T19:07:26.835Z,25.13
2017-12-25T19:09:55.052Z,24.27
2017-12-25T19:12:22.493Z,32.47
2017-12-25T19:14:49.995Z,19.60
2017-12-25T19:17:18.627Z,25.77
2017-12-25T19:19:46.089Z,21.50
2017-12-25T19:22:14.350Z,23.47
2017-12-25T19:24:42.557Z,25.83
2017-12-25T19:27:10.005Z,27.83
2017-12-25T19:29:37.502Z,23.53
2017-12-25T19:32:05.001Z,22.50
2017-12-25T19:34:32.475Z,24.73
2017-12-25T19:36:59.964Z,22.20
2017-12-25T19:39:27.410Z,15.20
2017-12-25T19:41:54.854Z,15.57
2017-12-25T19:44:23.120Z,18.23
2017-12-25T19:46:50.613Z,20.33
2017-12-25T19:49:18.648Z,14.47
2017-12-25T19:51:46.151Z,23.10
2017-12-25T19:54:13.585Z,24.50
2017-12-25T19:56:41.808Z,20.60
2017-12-25T19:59:09.294Z,18.70
2017-12-25T20:01:36.740Z,19.83
2017-12-25T20:04:04.191Z,25.50
2017-12-25T20:06:31.676Z,21.70
2017-12-25T20:08:59.157Z,17.20
2017-12-25T20:11:26.646Z,17.80
2017-12-25T20:13:54.128Z,19.90
2017-12-25T20:16:21.612Z,24.13
2017-12-25T20:18:49.545Z,17.80
2017-12-25T20:21:16.984Z,31.97
2017-12-25T20:23:44.490Z,26.97
2017-12-25T20:26:12.688Z,26.00
2017-12-25T20:28:40.904Z,27.20
2017-12-25T20:31:08.406Z,28.23
2017-12-25T20:33:35.899Z,32.57
2017-12-25T20:36:03.380Z,31.93
2017-12-25T20:38:30.869Z,32.10
2017-12-25T20:40:58.356Z,27.13
2017-12-25T20:43:25.841Z,31.63
2017-12-25T20:45:53.327Z,24.53
2017-12-25T20:48:20.818Z,23.27
2017-12-25T20:50:48.929Z,26.43
2017-12-25T20:53:16.421Z,25.07
2017-12-25T20:55:44.686Z,21.87
2017-12-25T20:58:13.674Z,22.53
2017-12-25T21:00:41.195Z,26.23
2017-12-25T21:03:08.670Z,20.63
2017-12-25T21:05:36.107Z,22.73
2017-12-25T21:08:03.605Z,20.87
2017-12-25T21:10:31.057Z,32.20
2017-12-25T21:12:59.032Z,22.20
2017-12-25T21:15:27.290Z,25.17
2017-12-25T21:17:54.720Z,20.53
2017-12-25T21:20:22.173Z,19.70
2017-12-25T21:22:49.678Z,17.23
2017-12-25T21:25:17.938Z,20.63
2017-12-25T21:27:45.416Z,21.27
2017-12-25T21:30:12.852Z,12.53
2017-12-25T21:32:40.352Z,16.83
2017-12-25T21:35:07.861Z,15.63
2017-12-25T21:37:35.335Z,16.63
2017-12-25T21:40:02.811Z,14.50
2017-12-25T21:42:30.306Z,18.13
2017-12-25T21:44:57.791Z,18.90
2017-12-25T21:47:25.283Z,29.73
2017-12-25T21:49:52.771Z,21.80
2017-12-25T21:52:20.259Z,34.07
2017-12-25T21:54:47.756Z,19.93
2017-12-25T21:57:15.155Z,26.13
2017-12-25T21:59:42.662Z,24.80
2017-12-25T22:02:10.184Z,15.20
2017-12-25T22:04:37.616Z,19.80
2017-12-25T22:07:05.063Z,12.63
2017-12-25T22:09:32.561Z,22.70
2017-12-25T22:12:00.057Z,21.00
2017-12-25T22:14:27.488Z,21.97
2017-12-25T22:16:55.751Z,20.53
2017-12-25T22:19:23.241Z,16.63
2017-12-25T22:21:50.736Z,14.30
2017-12-25T22:24:18.523Z,15.23
2017-12-25T22:26:46.007Z,18.77
2017-12-25T22:29:13.489Z,13.20
2017-12-25T22:31:40.973Z,13.17
2017-12-25T22:34:08.399Z,14.30
2017-12-25T22:36:35.888Z,16.50
2017-12-25T22:39:03.332Z,15.90
2017-12-25T22:41:31.543Z,20.20
2017-12-25T22:43:59.021Z,18.43
2017-12-25T22:46:26.516Z,19.43
2017-12-25T22:48:54.009Z,16.43
2017-12-25T22:51:21.491Z,14.00
2017-12-25T22:53:49.781Z,17.93
2017-12-25T22:56:17.234Z,15.70
2017-12-25T22:58:45.451Z,26.40
2017-12-25T23:01:12.936Z,18.67
2017-12-25T23:03:40.444Z,17.27
2017-12-25T23:06:07.923Z,22.87
2017-12-25T23:08:35.357Z,18.13
2017-12-25T23:11:03.628Z,30.57
2017-12-25T23:13:31.109Z,26.13
2017-12-25T23:15:58.589Z,20.03
2017-12-25T23:18:26.070Z,27.07
2017-12-25T23:20:53.556Z,24.80
2017-12-25T23:23:21.036Z,27.97
2017-12-25T23:25:48.515Z,20.57
2017-12-25T23:28:15.989Z,24.13
2017-12-25T23:30:43.474Z,26.40
2017-12-25T23:33:10.910Z,20.93
2017-12-25T23:35:38.404Z,16.47
2017-12-25T23:38:05.876Z,20.67
2017-12-25T23:40:33.370Z,20.80
2017-12-25T23:43:00.842Z,29.97
2017-12-25T23:45:28.269Z,29.53
2017-12-25T23:47:55.772Z,25.03
2017-12-25T23:50:23.192Z,25.30
2017-12-25T23:52:50.842Z,29.90
2017-12-25T23:55:19.684Z,24.20
2017-12-25T23:57:47.142Z,24.47
